Laquey, Missouri
Current Conditions -  °F | °C
As of 9:58 PM on Thursday 18 Dec 2014 (Local Time) from KTBN Reporting Station
Haze Haze  
Wind Chill:   Ceiling: 200
Heat Index:   Visibility: 2.5mi
Dew Point:   Wind: 3mph
Humidity: 100%   Direction: 130°SE
Pressure: 30.22"   Gusts: NA
Location:  37.77°N, 92.3°W
Report Text: KTBN 190358Z AUTO 13003KT 2 1/2SM BR OVC002 01/01 A3022 RMK AO2 VIS 1 3/4V2 1/2 SLP246 T00130013
Loading
Personal Weather Stations






























Interactive Weather Map New forecast layout! Learn more

10-Day Weather Forecast

Advertisements
Track Severe Weather on mobile